sensor_id;sensor_type;location;lat;lon;timestamp;temperature;humidity
837;DHT22;400;53.550;9.932;2023-11-21T00:00:42;10.50;99.90
837;DHT22;400;53.550;9.932;2023-11-21T00:03:09;10.50;99.90
837;DHT22;400;53.550;9.932;2023-11-21T00:05:37;10.40;99.90
837;DHT22;400;53.550;9.932;2023-11-21T00:08:04;10.50;99.90
837;DHT22;400;53.550;9.932;2023-11-21T00:10:31;10.40;99.90
837;DHT22;400;53.550;9.932;2023-11-21T00:12:59;10.40;99.90
837;DHT22;400;53.550;9.932;2023-11-21T00:15:29;10.30;99.90
837;DHT22;400;53.550;9.932;2023-11-21T00:17:56;10.20;99.90
837;DHT22;400;53.550;9.932;2023-11-21T00:20:23;10.20;99.90
837;DHT22;400;53.550;9.932;2023-11-21T00:22:50;10.10;99.90
837;DHT22;400;53.550;9.932;2023-11-21T00:25:17;10.20;99.90
837;DHT22;400;53.550;9.932;2023-11-21T00:27:44;10.10;99.90
837;DHT22;400;53.550;9.932;2023-11-21T00:30:11;10.10;99.90
837;DHT22;400;53.550;9.932;2023-11-21T00:32:39;10.10;99.90
837;DHT22;400;53.550;9.932;2023-11-21T00:35:06;10.00;78.10
837;DHT22;400;53.550;9.932;2023-11-21T00:37:33;10.00;69.10
837;DHT22;400;53.550;9.932;2023-11-21T00:40:04;10.00;62.30
837;DHT22;400;53.550;9.932;2023-11-21T00:42:31;10.00;69.30
837;DHT22;400;53.550;9.932;2023-11-21T00:44:59;10.00;51.10
837;DHT22;400;53.550;9.932;2023-11-21T00:47:26;9.90;40.00
837;DHT22;400;53.550;9.932;2023-11-21T00:49:54;9.80;35.60
837;DHT22;400;53.550;9.932;2023-11-21T00:52:22;9.80;40.30
837;DHT22;400;53.550;9.932;2023-11-21T00:54:49;9.90;41.00
837;DHT22;400;53.550;9.932;2023-11-21T00:57:16;9.90;30.20
837;DHT22;400;53.550;9.932;2023-11-21T00:59:43;9.80;25.10
837;DHT22;400;53.550;9.932;2023-11-21T01:02:10;9.70;19.50
837;DHT22;400;53.550;9.932;2023-11-21T01:04:37;9.70;24.00
837;DHT22;400;53.550;9.932;2023-11-21T01:07:06;9.70;21.50
837;DHT22;400;53.550;9.932;2023-11-21T01:09:33;9.50;14.90
837;DHT22;400;53.550;9.932;2023-11-21T01:12:00;9.40;19.20
837;DHT22;400;53.550;9.932;2023-11-21T01:14:27;9.50;28.40
837;DHT22;400;53.550;9.932;2023-11-21T01:16:54;9.50;29.90
837;DHT22;400;53.550;9.932;2023-11-21T01:19:21;9.50;29.40
837;DHT22;400;53.550;9.932;2023-11-21T01:21:48;9.40;24.60
837;DHT22;400;53.550;9.932;2023-11-21T01:24:16;9.40;26.90
837;DHT22;400;53.550;9.932;2023-11-21T01:26:43;9.30;28.00
837;DHT22;400;53.550;9.932;2023-11-21T01:29:12;9.20;35.30
837;DHT22;400;53.550;9.932;2023-11-21T01:31:40;9.30;46.40
837;DHT22;400;53.550;9.932;2023-11-21T01:34:07;9.20;38.50
837;DHT22;400;53.550;9.932;2023-11-21T01:36:34;9.20;47.20
837;DHT22;400;53.550;9.932;2023-11-21T01:39:01;9.30;42.70
837;DHT22;400;53.550;9.932;2023-11-21T01:41:35;9.20;38.60
837;DHT22;400;53.550;9.932;2023-11-21T01:44:02;9.20;25.30
837;DHT22;400;53.550;9.932;2023-11-21T01:46:33;9.20;20.90
837;DHT22;400;53.550;9.932;2023-11-21T01:49:00;9.20;17.40
837;DHT22;400;53.550;9.932;2023-11-21T01:51:27;9.20;9.50
837;DHT22;400;53.550;9.932;2023-11-21T01:53:54;9.20;8.50
837;DHT22;400;53.550;9.932;2023-11-21T01:56:23;9.20;1.30
837;DHT22;400;53.550;9.932;2023-11-21T01:58:53;9.20;1.00
837;DHT22;400;53.550;9.932;2023-11-21T02:01:21;9.30;2.60
837;DHT22;400;53.550;9.932;2023-11-21T02:03:48;9.30;1.00
837;DHT22;400;53.550;9.932;2023-11-21T02:06:15;9.20;1.00
837;DHT22;400;53.550;9.932;2023-11-21T02:08:43;9.20;1.00
837;DHT22;400;53.550;9.932;2023-11-21T02:11:10;9.20;1.00
837;DHT22;400;53.550;9.932;2023-11-21T02:13:38;9.30;1.00
837;DHT22;400;53.550;9.932;2023-11-21T02:16:10;9.20;1.00
837;DHT22;400;53.550;9.932;2023-11-21T02:18:38;9.20;1.00
837;DHT22;400;53.550;9.932;2023-11-21T02:21:06;9.30;1.00
837;DHT22;400;53.550;9.932;2023-11-21T02:23:34;9.40;1.00
837;DHT22;400;53.550;9.932;2023-11-21T02:26:01;9.40;1.00
837;DHT22;400;53.550;9.932;2023-11-21T02:28:30;9.40;1.00
837;DHT22;400;53.550;9.932;2023-11-21T02:30:57;9.40;1.00
837;DHT22;400;53.550;9.932;2023-11-21T02:33:24;9.40;1.00
837;DHT22;400;53.550;9.932;2023-11-21T02:35:52;9.40;1.00
837;DHT22;400;53.550;9.932;2023-11-21T02:38:20;9.30;1.00
837;DHT22;400;53.550;9.932;2023-11-21T02:40:49;9.30;1.00
837;DHT22;400;53.550;9.932;2023-11-21T02:43:16;9.30;1.00
837;DHT22;400;53.550;9.932;2023-11-21T02:45:43;9.30;1.00
837;DHT22;400;53.550;9.932;2023-11-21T02:48:10;9.30;1.00
837;DHT22;400;53.550;9.932;2023-11-21T02:50:37;9.30;1.00
837;DHT22;400;53.550;9.932;2023-11-21T02:53:04;9.30;1.00
837;DHT22;400;53.550;9.932;2023-11-21T02:55:32;9.20;1.00
837;DHT22;400;53.550;9.932;2023-11-21T02:58:02;9.20;1.00
837;DHT22;400;53.550;9.932;2023-11-21T03:00:30;9.20;1.00
837;DHT22;400;53.550;9.932;2023-11-21T03:02:57;9.20;1.00
837;DHT22;400;53.550;9.932;2023-11-21T03:05:24;9.20;1.00
837;DHT22;400;53.550;9.932;2023-11-21T03:07:51;9.20;1.00
837;DHT22;400;53.550;9.932;2023-11-21T03:10:18;9.30;1.00
837;DHT22;400;53.550;9.932;2023-11-21T03:12:45;9.20;1.00
837;DHT22;400;53.550;9.932;2023-11-21T03:15:13;9.20;1.00
837;DHT22;400;53.550;9.932;2023-11-21T03:17:43;9.20;1.00
837;DHT22;400;53.550;9.932;2023-11-21T03:20:10;9.10;1.00
837;DHT22;400;53.550;9.932;2023-11-21T03:22:39;9.20;1.00
837;DHT22;400;53.550;9.932;2023-11-21T03:25:07;9.20;1.00
837;DHT22;400;53.550;9.932;2023-11-21T03:27:36;9.20;1.00
837;DHT22;400;53.550;9.932;2023-11-21T03:30:05;9.20;1.00
837;DHT22;400;53.550;9.932;2023-11-21T03:32:34;9.20;1.00
837;DHT22;400;53.550;9.932;2023-11-21T03:35:02;9.20;1.00
837;DHT22;400;53.550;9.932;2023-11-21T03:37:29;9.30;1.00
837;DHT22;400;53.550;9.932;2023-11-21T03:39:56;9.30;1.00
837;DHT22;400;53.550;9.932;2023-11-21T03:42:23;9.30;1.00
837;DHT22;400;53.550;9.932;2023-11-21T03:44:51;9.30;1.00
837;DHT22;400;53.550;9.932;2023-11-21T03:47:18;9.20;1.00
837;DHT22;400;53.550;9.932;2023-11-21T03:49:47;9.20;1.00
837;DHT22;400;53.550;9.932;2023-11-21T03:52:14;9.20;1.00
837;DHT22;400;53.550;9.932;2023-11-21T03:54:41;9.20;1.00
837;DHT22;400;53.550;9.932;2023-11-21T03:57:09;9.10;1.00
837;DHT22;400;53.550;9.932;2023-11-21T03:59:36;9.10;1.00
837;DHT22;400;53.550;9.932;2023-11-21T04:02:06;9.10;1.00
837;DHT22;400;53.550;9.932;2023-11-21T04:04:33;9.10;1.00
837;DHT22;400;53.550;9.932;2023-11-21T04:07:01;9.00;1.00
837;DHT22;400;53.550;9.932;2023-11-21T04:09:28;9.00;1.00
837;DHT22;400;53.550;9.932;2023-11-21T04:11:55;9.00;1.00
837;DHT22;400;53.550;9.932;2023-11-21T04:14:22;9.00;1.00
837;DHT22;400;53.550;9.932;2023-11-21T04:16:49;9.00;1.00
837;DHT22;400;53.550;9.932;2023-11-21T04:19:18;9.00;1.00
837;DHT22;400;53.550;9.932;2023-11-21T04:21:46;9.00;1.00
837;DHT22;400;53.550;9.932;2023-11-21T04:24:14;9.00;1.00
837;DHT22;400;53.550;9.932;2023-11-21T04:26:41;9.00;1.00
837;DHT22;400;53.550;9.932;2023-11-21T04:29:08;8.90;1.00
837;DHT22;400;53.550;9.932;2023-11-21T04:31:35;8.90;1.00
837;DHT22;400;53.550;9.932;2023-11-21T04:34:02;8.90;1.00
837;DHT22;400;53.550;9.932;2023-11-21T04:36:30;8.90;1.00
837;DHT22;400;53.550;9.932;2023-11-21T04:38:57;8.90;1.00
837;DHT22;400;53.550;9.932;2023-11-21T04:41:26;8.90;1.00
837;DHT22;400;53.550;9.932;2023-11-21T04:43:53;8.90;1.00
837;DHT22;400;53.550;9.932;2023-11-21T04:46:20;8.90;1.00
837;DHT22;400;53.550;9.932;2023-11-21T04:51:56;8.80;1.00
837;DHT22;400;53.550;9.932;2023-11-21T04:54:24;8.90;1.00
837;DHT22;400;53.550;9.932;2023-11-21T04:56:52;8.90;1.00
837;DHT22;400;53.550;9.932;2023-11-21T04:59:19;9.00;1.00
837;DHT22;400;53.550;9.932;2023-11-21T05:01:50;8.90;1.00
837;DHT22;400;53.550;9.932;2023-11-21T05:04:17;9.00;1.00
837;DHT22;400;53.550;9.932;2023-11-21T05:06:44;9.00;1.00
837;DHT22;400;53.550;9.932;2023-11-21T05:09:12;9.00;1.00
837;DHT22;400;53.550;9.932;2023-11-21T05:11:38;9.00;1.00
837;DHT22;400;53.550;9.932;2023-11-21T05:14:07;8.90;1.00
837;DHT22;400;53.550;9.932;2023-11-21T05:16:36;8.80;1.00
837;DHT22;400;53.550;9.932;2023-11-21T05:19:06;8.80;1.00
837;DHT22;400;53.550;9.932;2023-11-21T05:21:43;8.90;1.00
837;DHT22;400;53.550;9.932;2023-11-21T05:24:12;8.90;1.00
837;DHT22;400;53.550;9.932;2023-11-21T05:26:39;8.90;1.00
837;DHT22;400;53.550;9.932;2023-11-21T05:29:07;8.90;1.00
837;DHT22;400;53.550;9.932;2023-11-21T05:31:36;8.90;1.00
837;DHT22;400;53.550;9.932;2023-11-21T05:34:03;8.80;1.00
837;DHT22;400;53.550;9.932;2023-11-21T05:36:31;8.80;1.00
837;DHT22;400;53.550;9.932;2023-11-21T05:38:59;8.80;1.00
837;DHT22;400;53.550;9.932;2023-11-21T05:41:26;8.80;1.00
837;DHT22;400;53.550;9.932;2023-11-21T05:43:54;8.80;1.00
837;DHT22;400;53.550;9.932;2023-11-21T05:46:23;8.70;1.00
837;DHT22;400;53.550;9.932;2023-11-21T05:48:50;8.70;1.00
837;DHT22;400;53.550;9.932;2023-11-21T05:51:17;8.80;1.00
837;DHT22;400;53.550;9.932;2023-11-21T05:53:44;8.80;1.00
837;DHT22;400;53.550;9.932;2023-11-21T05:56:13;8.80;1.00
837;DHT22;400;53.550;9.932;2023-11-21T05:58:46;8.80;1.00
837;DHT22;400;53.550;9.932;2023-11-21T06:01:15;8.80;1.00
837;DHT22;400;53.550;9.932;2023-11-21T06:03:45;8.90;1.00
837;DHT22;400;53.550;9.932;2023-11-21T06:06:12;8.90;1.00
837;DHT22;400;53.550;9.932;2023-11-21T06:08:39;8.80;1.00
837;DHT22;400;53.550;9.932;2023-11-21T06:11:06;8.80;1.00
837;DHT22;400;53.550;9.932;2023-11-21T06:13:33;8.80;1.00
837;DHT22;400;53.550;9.932;2023-11-21T06:16:02;8.80;1.00
837;DHT22;400;53.550;9.932;2023-11-21T06:18:34;8.80;1.00
837;DHT22;400;53.550;9.932;2023-11-21T06:21:02;8.90;1.00
837;DHT22;400;53.550;9.932;2023-11-21T06:23:30;8.80;1.00
837;DHT22;400;53.550;9.932;2023-11-21T06:26:01;8.80;1.00
837;DHT22;400;53.550;9.932;2023-11-21T06:28:33;8.80;1.00
837;DHT22;400;53.550;9.932;2023-11-21T06:31:02;8.80;1.00
837;DHT22;400;53.550;9.932;2023-11-21T06:33:31;8.80;1.00
837;DHT22;400;53.550;9.932;2023-11-21T06:35:59;8.80;1.00
837;DHT22;400;53.550;9.932;2023-11-21T06:38:30;8.80;1.00
837;DHT22;400;53.550;9.932;2023-11-21T06:40:58;8.80;1.00
837;DHT22;400;53.550;9.932;2023-11-21T06:43:27;8.80;1.00
837;DHT22;400;53.550;9.932;2023-11-21T06:45:54;8.80;1.00
837;DHT22;400;53.550;9.932;2023-11-21T06:48:21;8.80;1.00
837;DHT22;400;53.550;9.932;2023-11-21T06:50:48;8.80;1.00
837;DHT22;400;53.550;9.932;2023-11-21T06:53:15;8.80;1.00
837;DHT22;400;53.550;9.932;2023-11-21T06:55:43;8.80;1.00
837;DHT22;400;53.550;9.932;2023-11-21T06:58:15;8.80;1.00
837;DHT22;400;53.550;9.932;2023-11-21T07:00:43;8.80;1.00
837;DHT22;400;53.550;9.932;2023-11-21T07:03:14;8.90;1.00
837;DHT22;400;53.550;9.932;2023-11-21T07:05:47;8.90;1.00
837;DHT22;400;53.550;9.932;2023-11-21T07:08:18;8.90;1.00
837;DHT22;400;53.550;9.932;2023-11-21T07:10:49;8.80;1.00
837;DHT22;400;53.550;9.932;2023-11-21T07:13:19;8.90;1.00
837;DHT22;400;53.550;9.932;2023-11-21T07:15:49;8.80;1.00
837;DHT22;400;53.550;9.932;2023-11-21T07:18:18;8.80;1.00
837;DHT22;400;53.550;9.932;2023-11-21T07:20:46;8.80;1.00
837;DHT22;400;53.550;9.932;2023-11-21T07:23:16;8.80;1.00
837;DHT22;400;53.550;9.932;2023-11-21T07:25:49;8.80;1.00
837;DHT22;400;53.550;9.932;2023-11-21T07:28:17;8.80;1.00
837;DHT22;400;53.550;9.932;2023-11-21T07:30:47;8.80;1.00
837;DHT22;400;53.550;9.932;2023-11-21T07:33:22;8.80;1.00
837;DHT22;400;53.550;9.932;2023-11-21T07:35:55;8.70;1.00
837;DHT22;400;53.550;9.932;2023-11-21T07:38:26;8.70;1.00
837;DHT22;400;53.550;9.932;2023-11-21T07:40:57;8.70;1.00
837;DHT22;400;53.550;9.932;2023-11-21T07:43:24;8.70;1.00
837;DHT22;400;53.550;9.932;2023-11-21T07:45:52;8.70;1.00
837;DHT22;400;53.550;9.932;2023-11-21T07:48:19;8.70;1.00
837;DHT22;400;53.550;9.932;2023-11-21T07:50:48;8.80;1.00
837;DHT22;400;53.550;9.932;2023-11-21T07:53:17;8.80;1.00
837;DHT22;400;53.550;9.932;2023-11-21T07:55:49;8.70;1.00
837;DHT22;400;53.550;9.932;2023-11-21T07:58:22;8.80;1.00
837;DHT22;400;53.550;9.932;2023-11-21T08:00:52;8.80;1.00
837;DHT22;400;53.550;9.932;2023-11-21T08:03:23;8.80;1.00
837;DHT22;400;53.550;9.932;2023-11-21T08:05:53;8.80;1.00
837;DHT22;400;53.550;9.932;2023-11-21T08:08:20;8.80;1.00
837;DHT22;400;53.550;9.932;2023-11-21T08:10:47;8.80;1.00
837;DHT22;400;53.550;9.932;2023-11-21T08:13:27;8.80;1.00
837;DHT22;400;53.550;9.932;2023-11-21T08:15:58;8.80;1.00
837;DHT22;400;53.550;9.932;2023-11-21T08:18:28;8.80;1.00
837;DHT22;400;53.550;9.932;2023-11-21T08:20:56;8.80;1.00
837;DHT22;400;53.550;9.932;2023-11-21T08:23:24;8.70;1.00
837;DHT22;400;53.550;9.932;2023-11-21T08:25:51;8.80;1.00
837;DHT22;400;53.550;9.932;2023-11-21T08:28:18;8.80;1.00
837;DHT22;400;53.550;9.932;2023-11-21T08:30:49;8.80;1.00
837;DHT22;400;53.550;9.932;2023-11-21T08:33:16;8.90;1.00
837;DHT22;400;53.550;9.932;2023-11-21T08:35:44;8.80;1.00
837;DHT22;400;53.550;9.932;2023-11-21T08:38:16;8.80;1.00
837;DHT22;400;53.550;9.932;2023-11-21T08:40:45;8.80;1.00
837;DHT22;400;53.550;9.932;2023-11-21T08:43:13;8.90;1.00
837;DHT22;400;53.550;9.932;2023-11-21T08:45:43;8.90;1.00
837;DHT22;400;53.550;9.932;2023-11-21T08:48:11;8.80;1.00
837;DHT22;400;53.550;9.932;2023-11-21T08:50:38;8.80;1.00
837;DHT22;400;53.550;9.932;2023-11-21T08:53:05;8.80;1.00
837;DHT22;400;53.550;9.932;2023-11-21T08:55:33;8.80;1.00
837;DHT22;400;53.550;9.932;2023-11-21T08:58:03;8.80;1.00
837;DHT22;400;53.550;9.932;2023-11-21T09:00:32;8.70;1.00
837;DHT22;400;53.550;9.932;2023-11-21T09:03:01;8.70;1.00
837;DHT22;400;53.550;9.932;2023-11-21T09:05:30;8.70;1.00
837;DHT22;400;53.550;9.932;2023-11-21T09:07:56;8.80;1.00
837;DHT22;400;53.550;9.932;2023-11-21T09:10:23;8.80;1.00
837;DHT22;400;53.550;9.932;2023-11-21T09:12:51;8.80;1.00
837;DHT22;400;53.550;9.932;2023-11-21T09:15:19;8.80;1.00
837;DHT22;400;53.550;9.932;2023-11-21T09:17:47;8.80;1.00
837;DHT22;400;53.550;9.932;2023-11-21T09:20:14;8.80;1.00
837;DHT22;400;53.550;9.932;2023-11-21T09:22:42;8.80;1.00
837;DHT22;400;53.550;9.932;2023-11-21T09:25:13;8.80;1.00
837;DHT22;400;53.550;9.932;2023-11-21T09:27:44;8.80;1.00
837;DHT22;400;53.550;9.932;2023-11-21T09:30:13;8.80;1.00
837;DHT22;400;53.550;9.932;2023-11-21T09:32:40;8.70;1.00
837;DHT22;400;53.550;9.932;2023-11-21T09:35:11;8.80;1.00
837;DHT22;400;53.550;9.932;2023-11-21T09:37:39;8.80;1.00
837;DHT22;400;53.550;9.932;2023-11-21T09:40:11;8.90;1.00
837;DHT22;400;53.550;9.932;2023-11-21T09:42:49;8.80;1.00
837;DHT22;400;53.550;9.932;2023-11-21T09:45:23;8.80;1.00
837;DHT22;400;53.550;9.932;2023-11-21T09:47:52;8.70;1.00
837;DHT22;400;53.550;9.932;2023-11-21T09:50:20;8.70;1.00
837;DHT22;400;53.550;9.932;2023-11-21T09:52:54;8.70;1.00
837;DHT22;400;53.550;9.932;2023-11-21T09:55:26;8.70;1.00
837;DHT22;400;53.550;9.932;2023-11-21T09:57:56;8.70;1.00
837;DHT22;400;53.550;9.932;2023-11-21T10:00:24;8.70;1.00
837;DHT22;400;53.550;9.932;2023-11-21T10:02:53;8.70;1.00
837;DHT22;400;53.550;9.932;2023-11-21T10:05:20;8.70;1.00
837;DHT22;400;53.550;9.932;2023-11-21T10:07:49;8.70;1.00
837;DHT22;400;53.550;9.932;2023-11-21T10:10:18;8.70;1.00
837;DHT22;400;53.550;9.932;2023-11-21T10:12:53;8.70;1.00
837;DHT22;400;53.550;9.932;2023-11-21T10:15:22;8.70;1.00
837;DHT22;400;53.550;9.932;2023-11-21T10:17:52;8.70;1.00
837;DHT22;400;53.550;9.932;2023-11-21T10:20:20;8.80;1.00
837;DHT22;400;53.550;9.932;2023-11-21T10:22:48;8.70;1.00
837;DHT22;400;53.550;9.932;2023-11-21T10:25:15;8.80;1.00
837;DHT22;400;53.550;9.932;2023-11-21T10:27:48;8.80;1.00
837;DHT22;400;53.550;9.932;2023-11-21T10:30:17;8.80;1.00
837;DHT22;400;53.550;9.932;2023-11-21T10:32:46;8.90;1.00
837;DHT22;400;53.550;9.932;2023-11-21T10:35:16;8.90;1.00
837;DHT22;400;53.550;9.932;2023-11-21T10:38:03;8.80;1.00
837;DHT22;400;53.550;9.932;2023-11-21T10:40:38;8.80;1.00
837;DHT22;400;53.550;9.932;2023-11-21T10:43:09;8.80;1.00
837;DHT22;400;53.550;9.932;2023-11-21T10:45:37;8.80;1.00
837;DHT22;400;53.550;9.932;2023-11-21T10:48:08;8.80;1.00
837;DHT22;400;53.550;9.932;2023-11-21T10:50:38;8.80;1.00
837;DHT22;400;53.550;9.932;2023-11-21T10:53:09;8.80;1.00
837;DHT22;400;53.550;9.932;2023-11-21T10:55:39;8.80;1.00
837;DHT22;400;53.550;9.932;2023-11-21T10:58:14;8.70;1.00
837;DHT22;400;53.550;9.932;2023-11-21T11:00:44;8.80;1.00
837;DHT22;400;53.550;9.932;2023-11-21T11:03:14;8.80;1.00
837;DHT22;400;53.550;9.932;2023-11-21T11:05:43;8.80;1.00
837;DHT22;400;53.550;9.932;2023-11-21T11:08:20;8.70;1.00
837;DHT22;400;53.550;9.932;2023-11-21T11:10:53;8.70;1.00
837;DHT22;400;53.550;9.932;2023-11-21T11:13:22;8.60;1.00
837;DHT22;400;53.550;9.932;2023-11-21T11:15:50;8.60;1.00
837;DHT22;400;53.550;9.932;2023-11-21T11:18:19;8.60;1.00
837;DHT22;400;53.550;9.932;2023-11-21T11:20:48;8.60;1.00
837;DHT22;400;53.550;9.932;2023-11-21T11:23:32;8.70;1.00
837;DHT22;400;53.550;9.932;2023-11-21T11:26:20;8.70;1.00
837;DHT22;400;53.550;9.932;2023-11-21T11:29:04;8.70;1.00
837;DHT22;400;53.550;9.932;2023-11-21T11:34:47;8.70;1.00
837;DHT22;400;53.550;9.932;2023-11-21T11:37:23;8.80;1.00
837;DHT22;400;53.550;9.932;2023-11-21T11:39:51;8.80;1.00
837;DHT22;400;53.550;9.932;2023-11-21T11:42:22;8.80;1.00
837;DHT22;400;53.550;9.932;2023-11-21T11:44:54;8.80;1.00
837;DHT22;400;53.550;9.932;2023-11-21T11:47:26;8.80;1.00
837;DHT22;400;53.550;9.932;2023-11-21T11:50:03;8.80;1.00
837;DHT22;400;53.550;9.932;2023-11-21T11:52:35;8.80;1.00
837;DHT22;400;53.550;9.932;2023-11-21T11:55:07;8.90;1.00
837;DHT22;400;53.550;9.932;2023-11-21T11:57:39;8.90;1.00
837;DHT22;400;53.550;9.932;2023-11-21T12:00:14;9.00;1.00
837;DHT22;400;53.550;9.932;2023-11-21T12:02:43;8.90;1.00
837;DHT22;400;53.550;9.932;2023-11-21T12:05:11;9.00;1.00
837;DHT22;400;53.550;9.932;2023-11-21T12:07:42;9.10;1.00
837;DHT22;400;53.550;9.932;2023-11-21T12:10:14;9.00;1.00
837;DHT22;400;53.550;9.932;2023-11-21T12:12:46;9.00;1.00
837;DHT22;400;53.550;9.932;2023-11-21T12:15:17;8.90;1.00
837;DHT22;400;53.550;9.932;2023-11-21T12:17:47;8.90;1.00
837;DHT22;400;53.550;9.932;2023-11-21T12:20:19;8.90;1.00
837;DHT22;400;53.550;9.932;2023-11-21T12:22:49;8.80;1.00
837;DHT22;400;53.550;9.932;2023-11-21T12:25:21;8.80;1.00
837;DHT22;400;53.550;9.932;2023-11-21T12:27:52;8.80;1.00
837;DHT22;400;53.550;9.932;2023-11-21T12:30:22;8.70;1.00
837;DHT22;400;53.550;9.932;2023-11-21T12:32:50;8.70;1.00
837;DHT22;400;53.550;9.932;2023-11-21T12:35:18;8.70;1.00
837;DHT22;400;53.550;9.932;2023-11-21T12:37:52;8.60;1.00
837;DHT22;400;53.550;9.932;2023-11-21T12:40:25;8.70;1.00
837;DHT22;400;53.550;9.932;2023-11-21T12:42:55;8.70;1.00
837;DHT22;400;53.550;9.932;2023-11-21T12:45:28;8.70;1.00
837;DHT22;400;53.550;9.932;2023-11-21T12:47:59;8.70;1.00
837;DHT22;400;53.550;9.932;2023-11-21T12:50:34;8.60;1.00
837;DHT22;400;53.550;9.932;2023-11-21T12:53:03;8.60;1.00
837;DHT22;400;53.550;9.932;2023-11-21T12:55:35;8.60;1.00
837;DHT22;400;53.550;9.932;2023-11-21T12:58:04;8.60;1.00
837;DHT22;400;53.550;9.932;2023-11-21T13:00:37;8.60;1.00
837;DHT22;400;53.550;9.932;2023-11-21T13:03:06;8.60;1.00
837;DHT22;400;53.550;9.932;2023-11-21T13:05:36;8.50;1.00
837;DHT22;400;53.550;9.932;2023-11-21T13:08:08;8.50;1.00
837;DHT22;400;53.550;9.932;2023-11-21T13:10:40;8.40;1.00
837;DHT22;400;53.550;9.932;2023-11-21T13:13:11;8.40;1.00
837;DHT22;400;53.550;9.932;2023-11-21T13:15:49;8.50;1.00
837;DHT22;400;53.550;9.932;2023-11-21T13:18:20;8.50;1.00
837;DHT22;400;53.550;9.932;2023-11-21T13:20:52;8.60;1.00
837;DHT22;400;53.550;9.932;2023-11-21T13:23:34;8.50;1.00
837;DHT22;400;53.550;9.932;2023-11-21T13:26:01;8.50;1.00
837;DHT22;400;53.550;9.932;2023-11-21T13:28:29;8.50;1.00
837;DHT22;400;53.550;9.932;2023-11-21T13:31:02;8.50;1.00
837;DHT22;400;53.550;9.932;2023-11-21T13:33:37;8.50;1.00
837;DHT22;400;53.550;9.932;2023-11-21T13:36:08;8.50;1.00
837;DHT22;400;53.550;9.932;2023-11-21T13:38:35;8.50;1.00
837;DHT22;400;53.550;9.932;2023-11-21T13:41:07;8.60;1.00
837;DHT22;400;53.550;9.932;2023-11-21T13:43:36;8.60;1.00
837;DHT22;400;53.550;9.932;2023-11-21T13:46:05;8.60;1.00
837;DHT22;400;53.550;9.932;2023-11-21T13:49:00;8.60;1.00
837;DHT22;400;53.550;9.932;2023-11-21T13:51:27;8.60;1.00
837;DHT22;400;53.550;9.932;2023-11-21T13:54:04;8.60;1.00
837;DHT22;400;53.550;9.932;2023-11-21T13:56:37;8.60;1.00
837;DHT22;400;53.550;9.932;2023-11-21T13:59:10;8.60;1.00
837;DHT22;400;53.550;9.932;2023-11-21T14:01:47;8.40;1.00
837;DHT22;400;53.550;9.932;2023-11-21T14:04:25;8.40;1.00
837;DHT22;400;53.550;9.932;2023-11-21T14:07:15;8.30;1.00
837;DHT22;400;53.550;9.932;2023-11-21T14:09:56;8.30;1.00
837;DHT22;400;53.550;9.932;2023-11-21T14:12:24;8.30;1.00
837;DHT22;400;53.550;9.932;2023-11-21T14:14:51;8.30;1.00
837;DHT22;400;53.550;9.932;2023-11-21T14:17:21;8.30;1.00
837;DHT22;400;53.550;9.932;2023-11-21T14:19:50;8.30;1.00
837;DHT22;400;53.550;9.932;2023-11-21T14:22:17;8.20;1.00
837;DHT22;400;53.550;9.932;2023-11-21T14:24:45;8.20;1.00
837;DHT22;400;53.550;9.932;2023-11-21T14:27:12;8.20;1.00
837;DHT22;400;53.550;9.932;2023-11-21T14:29:40;8.10;1.00
837;DHT22;400;53.550;9.932;2023-11-21T14:32:10;8.00;1.00
837;DHT22;400;53.550;9.932;2023-11-21T14:34:38;8.00;1.00
837;DHT22;400;53.550;9.932;2023-11-21T14:37:08;7.90;1.00
837;DHT22;400;53.550;9.932;2023-11-21T14:39:39;7.90;1.00
837;DHT22;400;53.550;9.932;2023-11-21T14:42:10;7.90;1.00
837;DHT22;400;53.550;9.932;2023-11-21T14:44:40;7.80;1.00
837;DHT22;400;53.550;9.932;2023-11-21T14:47:08;7.80;1.00
837;DHT22;400;53.550;9.932;2023-11-21T14:49:42;7.80;1.00
837;DHT22;400;53.550;9.932;2023-11-21T14:52:18;7.90;1.00
837;DHT22;400;53.550;9.932;2023-11-21T14:57:45;7.80;1.00
837;DHT22;400;53.550;9.932;2023-11-21T15:00:18;7.90;1.00
837;DHT22;400;53.550;9.932;2023-11-21T15:03:10;7.90;1.00
837;DHT22;400;53.550;9.932;2023-11-21T15:06:01;7.80;1.00
837;DHT22;400;53.550;9.932;2023-11-21T15:08:48;7.90;1.00
837;DHT22;400;53.550;9.932;2023-11-21T15:11:25;7.90;1.00
837;DHT22;400;53.550;9.932;2023-11-21T15:13:58;7.80;1.00
837;DHT22;400;53.550;9.932;2023-11-21T15:16:32;7.80;1.00
837;DHT22;400;53.550;9.932;2023-11-21T15:18:59;7.80;1.00
837;DHT22;400;53.550;9.932;2023-11-21T15:21:29;7.80;1.00
837;DHT22;400;53.550;9.932;2023-11-21T15:23:58;7.70;1.00
837;DHT22;400;53.550;9.932;2023-11-21T15:26:28;7.80;1.00
837;DHT22;400;53.550;9.932;2023-11-21T15:28:55;7.80;1.00
837;DHT22;400;53.550;9.932;2023-11-21T15:31:25;7.90;1.00
837;DHT22;400;53.550;9.932;2023-11-21T15:33:59;7.90;1.00
837;DHT22;400;53.550;9.932;2023-11-21T15:36:36;7.80;1.00
837;DHT22;400;53.550;9.932;2023-11-21T15:39:08;7.70;1.00
837;DHT22;400;53.550;9.932;2023-11-21T15:41:38;7.70;1.00
837;DHT22;400;53.550;9.932;2023-11-21T15:44:07;7.80;1.00
837;DHT22;400;53.550;9.932;2023-11-21T15:46:38;7.70;1.00
837;DHT22;400;53.550;9.932;2023-11-21T15:49:07;7.60;1.00
837;DHT22;400;53.550;9.932;2023-11-21T15:51:39;7.60;1.00
837;DHT22;400;53.550;9.932;2023-11-21T15:54:07;7.60;1.00
837;DHT22;400;53.550;9.932;2023-11-21T15:56:34;7.60;1.00
837;DHT22;400;53.550;9.932;2023-11-21T15:59:02;7.50;1.00
837;DHT22;400;53.550;9.932;2023-11-21T16:01:30;7.50;1.00
837;DHT22;400;53.550;9.932;2023-11-21T16:03:57;7.50;1.00
837;DHT22;400;53.550;9.932;2023-11-21T16:06:26;7.50;1.00
837;DHT22;400;53.550;9.932;2023-11-21T16:08:56;7.50;1.00
837;DHT22;400;53.550;9.932;2023-11-21T16:11:24;7.50;1.00
837;DHT22;400;53.550;9.932;2023-11-21T16:13:52;7.50;1.00
837;DHT22;400;53.550;9.932;2023-11-21T16:16:22;7.50;1.00
837;DHT22;400;53.550;9.932;2023-11-21T16:18:49;7.50;1.00
837;DHT22;400;53.550;9.932;2023-11-21T16:21:16;7.60;1.00
837;DHT22;400;53.550;9.932;2023-11-21T16:23:43;7.60;1.00
837;DHT22;400;53.550;9.932;2023-11-21T16:26:14;7.60;1.00
837;DHT22;400;53.550;9.932;2023-11-21T16:28:43;7.60;1.00
837;DHT22;400;53.550;9.932;2023-11-21T16:31:11;7.60;1.00
837;DHT22;400;53.550;9.932;2023-11-21T16:33:40;7.60;1.00
837;DHT22;400;53.550;9.932;2023-11-21T16:36:08;7.60;1.00
837;DHT22;400;53.550;9.932;2023-11-21T16:38:35;7.60;1.00
837;DHT22;400;53.550;9.932;2023-11-21T16:41:02;7.60;1.00
837;DHT22;400;53.550;9.932;2023-11-21T16:43:30;7.60;1.00
837;DHT22;400;53.550;9.932;2023-11-21T16:46:00;7.60;1.00
837;DHT22;400;53.550;9.932;2023-11-21T16:48:27;7.70;1.00
837;DHT22;400;53.550;9.932;2023-11-21T16:50:54;7.70;1.00
837;DHT22;400;53.550;9.932;2023-11-21T16:53:21;7.70;1.00
837;DHT22;400;53.550;9.932;2023-11-21T16:55:51;7.70;1.00
837;DHT22;400;53.550;9.932;2023-11-21T16:58:19;7.70;1.00
837;DHT22;400;53.550;9.932;2023-11-21T17:00:47;7.70;1.00
837;DHT22;400;53.550;9.932;2023-11-21T17:03:14;7.70;1.00
837;DHT22;400;53.550;9.932;2023-11-21T17:05:41;7.70;1.00
837;DHT22;400;53.550;9.932;2023-11-21T17:08:09;7.70;1.00
837;DHT22;400;53.550;9.932;2023-11-21T17:10:37;7.60;1.00
837;DHT22;400;53.550;9.932;2023-11-21T17:13:05;7.60;1.00
837;DHT22;400;53.550;9.932;2023-11-21T17:15:32;7.50;1.00
837;DHT22;400;53.550;9.932;2023-11-21T17:18:00;7.50;1.00
837;DHT22;400;53.550;9.932;2023-11-21T17:20:29;7.50;1.00
837;DHT22;400;53.550;9.932;2023-11-21T17:22:56;7.40;1.00
837;DHT22;400;53.550;9.932;2023-11-21T17:25:25;7.20;1.00
837;DHT22;400;53.550;9.932;2023-11-21T17:27:56;7.20;1.00
837;DHT22;400;53.550;9.932;2023-11-21T17:30:25;7.30;1.00